Duke Field,(Eglin Af Aux Nr 3) Airport
KEGI : now visible

Airfield :











YOU CAN JOIN US ON...

 
LOGIN :

Register | Disclaimer

   EN    FR    IT 

 









Legend :    VFR   Marginal VFR   IFR   Intensive IFR   Very Intensive IFR
Visi :
Ceiling :
>= 8 km
>= 3000ft
5 to 8 km
1000 to 3000 ft
1500m to 5 km
500 to 1000 ft
800 to 1500m
200 to 500 ft
< 800m
< 200 ft
Symbols :   Thunderstorms  Fog  Heavy snow  Heavy precipitations  Wind > 20 kt






- Airport Elevation : 191 ft


KEGI - Duke Field,(Eglin Af Aux Nr 3)

CURRENT METAR :
  • 291055Z AUTO 03008G15KT 10SM CLR 11/M11 A3026 RMK AO2 SLP247 T01101111 $

EXPIRED METARs :
  • 290955Z AUTO 02012KT 10SM OVC046 12/M06 A3025 RMK AO2 SLP244 T01161063 $
  • 290855Z AUTO 02008KT 10SM OVC044 12/M05 A3024 RMK AO2 SLP240 T01171049 50004 $
  • 290755Z AUTO 03011KT 10SM CLR 12/M05 A3025 RMK AO2 SLP244 T01171049 $
  • 290655Z AUTO 04015G24KT 10SM CLR 13/M02 A3024 RMK AO2 SLP240 T01271024 $

TAF TAF KEGI
Valid from the 29 at 10:00 until the 01 at 16:00 UTC


291000Z 2910/0116 04010G15KT 9999 BKN040 OVC250 QNH3020INS
BECMG 2916/2917 05012KT 9999 BKN040 BKN080 OVC250 QNH3024INS
BECMG 0106/0107 09010KT 9999 BKN025 OVC040 QNH3020INS
BECMG 0109/0110 10009KT 8000 -SHRA BKN015 OVC030 QNH3014INS TX17/2920Z TN09/2912Z LAST NO AMDS AFT 2910 NEXT 2914
KZJX FIR / North America



MET'MAP, your aeronautical weather chart ! - Copyright ORBIFLY December 2007 - Disclaimer

ORBIFLY MET'MAP TEAM :

Programming & Development : Alexandra Zaïnal
Original concept : Baudouin d'Aumeries
Technical & hardware support : Manuel Goepfert
Assistance : Marc-Olivier Méhu




SOURCES & CREDITS :

   NOAA       Earth
Advisory